Bar Harbor, ME (04609)

12:02 AM EDT on July 26, 2016 (GMT -0400)
College of the Atlantic | | Change Station

Elev 52 ft 44.39 °N, 68.22 °W | Updated 36 seconds ago

Rain
Rain Mist
67.8 °F
Feels Like 67.8 °F
N
0.0
Wind Variable Wind from East
Gusts 2.0 mph

Today
High -- | Low -- °F
--% Chance of Precip.
Yesterday
High -- | Low -- °F
Precip. -- in
Pressure 29.80 in
Visibility 3.0 miles
Clouds Overcast 300 ft
Dew Point 67 °F
Humidity 98%
Rainfall 0.00 in
Snow Depth Not available.
5:13 AM 8:04 PM
Waning Gibbous, 59% visible
METAR KBHB 260356Z AUTO 09005KT 3SM VCTS RA BR OVC003 18/18 A2979 RMK AO2 LTG DSNT SE AND S TSB43 SLP091 P0011 T01780178 402780156
Pressure 29.80 in
Visibility 3.0 miles
Clouds Overcast 300 ft
Dew Point 67 °F
Humidity 98%
Rainfall 0.00 in
Snow Depth Not available.
5:13 AM 8:04 PM
Waning Gibbous, 59% visible
METAR KBHB 260356Z AUTO 09005KT 3SM VCTS RA BR OVC003 18/18 A2979 RMK AO2 LTG DSNT SE AND S TSB43 SLP091 P0011 T01780178 402780156

10-Day Weather Forecast

Almanac

Astronomy

Jul. 26, 2016 Rise Set
Actual Time
Civil Twilight
Nautical Twilight
Astronomical Twilight
Moon
Length of Visible Light
Length of Day
Tomorrow will be .
, % of the Moon is Illuminated

Today's Extremes

State Highs State Lows

Community

WunderPhotos

Upload Photos

1,927,530 photos uploaded!

WunderBlog® & News

Nearby

Air Quality

  Air Quality AQ Index Pollutant
Not available.

Snow Depth

Station Depth Elevation

Earthquake Activity

City Distance Mag. Time & Date
Minimum magnitude displayed is 2.5.

Coastal Water Temperatures

Place Temperature

Stations

Nearby Weather Stations

Station Location Temp. Windchill Dew Point Humidity Wind Precip. Elev Updated Type
                   

Watches & Warnings

There are currently no watches in effect.